sensor_id;sensor_type;location;lat;lon;timestamp;pressure;altitude;pressure_sealevel;temperature;humidity
72685;BME280;61365;52.162;4.500;2023-11-19T00:01:29;100685.19;;;14.05;92.22
72685;BME280;61365;52.162;4.500;2023-11-19T00:03:55;100685.09;;;14.11;91.88
72685;BME280;61365;52.162;4.500;2023-11-19T00:06:21;100687.97;;;13.98;91.59
72685;BME280;61365;52.162;4.500;2023-11-19T00:08:47;100702.19;;;13.89;92.44
72685;BME280;61365;52.162;4.500;2023-11-19T00:11:13;100710.00;;;13.95;92.76
72685;BME280;61365;52.162;4.500;2023-11-19T00:13:41;100711.69;;;13.99;92.42
72685;BME280;61365;52.162;4.500;2023-11-19T00:16:07;100711.97;;;13.82;92.62
72685;BME280;61365;52.162;4.500;2023-11-19T00:18:35;100703.13;;;13.85;93.00
72685;BME280;61365;52.162;4.500;2023-11-19T00:21:05;100693.75;;;13.68;93.80
72685;BME280;61365;52.162;4.500;2023-11-19T00:23:33;100687.63;;;13.64;93.91
72685;BME280;61365;52.162;4.500;2023-11-19T00:26:00;100691.97;;;13.69;94.23
72685;BME280;61365;52.162;4.500;2023-11-19T00:28:26;100689.31;;;13.70;94.04
72685;BME280;61365;52.162;4.500;2023-11-19T00:30:52;100679.63;;;13.71;93.44
72685;BME280;61365;52.162;4.500;2023-11-19T00:33:18;100689.31;;;13.70;93.78
72685;BME280;61365;52.162;4.500;2023-11-19T00:35:44;100692.66;;;13.80;93.58
72685;BME280;61365;52.162;4.500;2023-11-19T00:38:11;100682.31;;;13.69;93.63
72685;BME280;61365;52.162;4.500;2023-11-19T00:40:37;100689.31;;;13.70;93.67
72685;BME280;61365;52.162;4.500;2023-11-19T00:43:03;100692.91;;;13.66;93.87
72685;BME280;61365;52.162;4.500;2023-11-19T00:45:29;100688.53;;;13.65;94.10
72685;BME280;61365;52.162;4.500;2023-11-19T00:47:55;100694.50;;;13.75;93.44
72685;BME280;61365;52.162;4.500;2023-11-19T00:50:21;100686.56;;;13.76;93.39
72685;BME280;61365;52.162;4.500;2023-11-19T00:52:48;100677.00;;;13.71;92.82
72685;BME280;61365;52.162;4.500;2023-11-19T00:55:14;100667.34;;;13.70;93.34
72685;BME280;61365;52.162;4.500;2023-11-19T00:57:40;100664.78;;;13.63;93.68
72685;BME280;61365;52.162;4.500;2023-11-19T01:00:07;100668.00;;;13.84;92.24
72685;BME280;61365;52.162;4.500;2023-11-19T01:02:48;100658.56;;;13.69;92.70
72685;BME280;61365;52.162;4.500;2023-11-19T01:05:15;100651.31;;;13.82;92.60
72685;BME280;61365;52.162;4.500;2023-11-19T01:07:41;100635.72;;;13.68;92.35
72685;BME280;61365;52.162;4.500;2023-11-19T01:10:08;100647.19;;;13.67;92.85
72685;BME280;61365;52.162;4.500;2023-11-19T01:12:35;100638.38;;;13.68;92.22
72685;BME280;61365;52.162;4.500;2023-11-19T01:15:01;100648.03;;;13.69;92.68
72685;BME280;61365;52.162;4.500;2023-11-19T01:17:28;100648.97;;;13.65;92.78
72685;BME280;61365;52.162;4.500;2023-11-19T01:19:54;100663.03;;;13.64;92.06
72685;BME280;61365;52.162;4.500;2023-11-19T01:22:20;100659.59;;;13.60;91.71
72685;BME280;61365;52.162;4.500;2023-11-19T01:24:46;100642.84;;;13.63;91.62
72685;BME280;61365;52.162;4.500;2023-11-19T01:27:12;100651.59;;;13.63;91.48
72685;BME280;61365;52.162;4.500;2023-11-19T01:29:39;100649.97;;;13.58;90.90
72685;BME280;61365;52.162;4.500;2023-11-19T01:32:05;100645.63;;;13.55;90.58
72685;BME280;61365;52.162;4.500;2023-11-19T01:34:31;100647.34;;;13.56;90.71
72685;BME280;61365;52.162;4.500;2023-11-19T01:36:57;100656.91;;;13.62;90.24
72685;BME280;61365;52.162;4.500;2023-11-19T01:39:23;100652.59;;;13.59;89.63
72685;BME280;61365;52.162;4.500;2023-11-19T01:41:50;100666.72;;;13.54;89.92
72685;BME280;61365;52.162;4.500;2023-11-19T01:44:16;100657.06;;;13.54;90.05
72685;BME280;61365;52.162;4.500;2023-11-19T01:46:43;100662.38;;;13.49;90.34
72685;BME280;61365;52.162;4.500;2023-11-19T01:49:11;100658.84;;;13.50;90.28
72685;BME280;61365;52.162;4.500;2023-11-19T01:51:40;100652.06;;;13.35;90.70
72685;BME280;61365;52.162;4.500;2023-11-19T01:54:07;100646.56;;;13.49;90.57
72685;BME280;61365;52.162;4.500;2023-11-19T01:56:34;100661.56;;;13.47;89.45
72685;BME280;61365;52.162;4.500;2023-11-19T01:59:01;100655.25;;;13.56;88.81
72685;BME280;61365;52.162;4.500;2023-11-19T02:01:28;100659.97;;;13.34;89.49
72685;BME280;61365;52.162;4.500;2023-11-19T02:03:55;100678.41;;;13.35;90.16
72685;BME280;61365;52.162;4.500;2023-11-19T02:06:23;100676.66;;;13.33;90.12
72685;BME280;61365;52.162;4.500;2023-11-19T02:08:51;100674.03;;;13.33;89.90
72685;BME280;61365;52.162;4.500;2023-11-19T02:11:17;100677.59;;;13.29;89.85
72685;BME280;61365;52.162;4.500;2023-11-19T02:13:43;100676.84;;;13.22;90.22
72685;BME280;61365;52.162;4.500;2023-11-19T02:16:10;100676.81;;;13.24;90.20
72685;BME280;61365;52.162;4.500;2023-11-19T02:18:36;100673.44;;;13.15;90.65
72685;BME280;61365;52.162;4.500;2023-11-19T02:21:02;100672.50;;;13.19;90.11
72685;BME280;61365;52.162;4.500;2023-11-19T02:23:30;100658.63;;;13.05;90.35
72685;BME280;61365;52.162;4.500;2023-11-19T02:26:14;100645.25;;;13.20;89.96
72685;BME280;61365;52.162;4.500;2023-11-19T02:29:02;100635.69;;;13.13;90.03
72685;BME280;61365;52.162;4.500;2023-11-19T02:31:28;100636.41;;;13.23;89.42
72685;BME280;61365;52.162;4.500;2023-11-19T02:33:54;100640.03;;;13.17;88.85
72685;BME280;61365;52.162;4.500;2023-11-19T02:36:21;100646.28;;;13.10;89.87
72685;BME280;61365;52.162;4.500;2023-11-19T02:38:47;100649.59;;;13.23;90.01
72685;BME280;61365;52.162;4.500;2023-11-19T02:41:13;100663.78;;;13.13;89.51
72685;BME280;61365;52.162;4.500;2023-11-19T02:43:40;100648.75;;;13.21;89.85
72685;BME280;61365;52.162;4.500;2023-11-19T02:46:06;100653.25;;;13.14;88.91
72685;BME280;61365;52.162;4.500;2023-11-19T02:48:33;100645.44;;;13.06;89.43
72685;BME280;61365;52.162;4.500;2023-11-19T02:51:01;100647.13;;;13.12;89.52
72685;BME280;61365;52.162;4.500;2023-11-19T02:53:32;100645.50;;;13.03;89.38
72685;BME280;61365;52.162;4.500;2023-11-19T02:55:58;100644.53;;;13.09;89.07
72685;BME280;61365;52.162;4.500;2023-11-19T02:58:28;100643.75;;;13.02;88.88
72685;BME280;61365;52.162;4.500;2023-11-19T03:00:54;100663.13;;;12.98;88.68
72685;BME280;61365;52.162;4.500;2023-11-19T03:03:25;100654.34;;;12.98;88.65
72685;BME280;61365;52.162;4.500;2023-11-19T03:05:57;100651.63;;;13.05;88.06
72685;BME280;61365;52.162;4.500;2023-11-19T03:08:23;100641.97;;;13.04;87.85
72685;BME280;61365;52.162;4.500;2023-11-19T03:10:49;100645.56;;;12.97;87.99
72685;BME280;61365;52.162;4.500;2023-11-19T03:13:15;100644.75;;;12.92;88.01
72685;BME280;61365;52.162;4.500;2023-11-19T03:15:42;100635.22;;;12.83;88.14
72685;BME280;61365;52.162;4.500;2023-11-19T03:18:08;100633.34;;;12.95;88.31
72685;BME280;61365;52.162;4.500;2023-11-19T03:20:34;100634.97;;;13.03;88.11
72685;BME280;61365;52.162;4.500;2023-11-19T03:23:01;100623.56;;;13.00;88.01
72685;BME280;61365;52.162;4.500;2023-11-19T03:25:27;100622.84;;;12.91;87.52
72685;BME280;61365;52.162;4.500;2023-11-19T03:27:59;100621.97;;;12.88;88.83
72685;BME280;61365;52.162;4.500;2023-11-19T03:30:30;100612.22;;;12.96;88.02
72685;BME280;61365;52.162;4.500;2023-11-19T03:32:56;100614.91;;;12.95;87.90
72685;BME280;61365;52.162;4.500;2023-11-19T03:35:23;100623.59;;;12.98;86.52
72685;BME280;61365;52.162;4.500;2023-11-19T03:37:50;100639.38;;;13.00;87.16
72685;BME280;61365;52.162;4.500;2023-11-19T03:40:17;100633.41;;;12.87;87.18
72685;BME280;61365;52.162;4.500;2023-11-19T03:42:45;100632.72;;;12.74;87.53
72685;BME280;61365;52.162;4.500;2023-11-19T03:45:11;100637.03;;;12.80;88.14
72685;BME280;61365;52.162;4.500;2023-11-19T03:47:38;100628.06;;;12.93;88.39
72685;BME280;61365;52.162;4.500;2023-11-19T03:50:05;100637.50;;;13.10;87.73
72685;BME280;61365;52.162;4.500;2023-11-19T03:52:33;100638.63;;;12.90;86.64
72685;BME280;61365;52.162;4.500;2023-11-19T03:54:59;100639.63;;;12.83;87.17
72685;BME280;61365;52.162;4.500;2023-11-19T03:57:26;100640.59;;;12.75;87.33
72685;BME280;61365;52.162;4.500;2023-11-19T03:59:53;100639.72;;;12.75;87.75
72685;BME280;61365;52.162;4.500;2023-11-19T04:02:21;100645.00;;;12.73;86.60
72685;BME280;61365;52.162;4.500;2023-11-19T04:04:47;100653.03;;;12.66;86.79
72685;BME280;61365;52.162;4.500;2023-11-19T04:07:14;100645.91;;;12.72;86.22
72685;BME280;61365;52.162;4.500;2023-11-19T04:09:41;100651.91;;;12.82;86.35
72685;BME280;61365;52.162;4.500;2023-11-19T04:12:07;100660.00;;;12.70;85.74
72685;BME280;61365;52.162;4.500;2023-11-19T04:14:33;100653.69;;;12.80;86.03
72685;BME280;61365;52.162;4.500;2023-11-19T04:16:59;100660.25;;;12.46;85.65
72685;BME280;61365;52.162;4.500;2023-11-19T04:19:26;100646.06;;;12.58;86.27
72685;BME280;61365;52.162;4.500;2023-11-19T04:21:52;100642.56;;;12.61;85.07
72685;BME280;61365;52.162;4.500;2023-11-19T04:24:18;100652.13;;;12.67;84.23
72685;BME280;61365;52.162;4.500;2023-11-19T04:26:45;100646.72;;;12.76;85.10
72685;BME280;61365;52.162;4.500;2023-11-19T04:29:12;100639.78;;;12.70;84.65
72685;BME280;61365;52.162;4.500;2023-11-19T04:31:40;100644.06;;;12.81;83.72
72685;BME280;61365;52.162;4.500;2023-11-19T04:34:07;100639.69;;;12.80;83.28
72685;BME280;61365;52.162;4.500;2023-11-19T04:36:34;100626.47;;;12.81;83.58
72685;BME280;61365;52.162;4.500;2023-11-19T04:39:00;100637.94;;;12.77;83.28
72685;BME280;61365;52.162;4.500;2023-11-19T04:41:27;100637.19;;;12.67;82.36
72685;BME280;61365;52.162;4.500;2023-11-19T04:43:56;100636.28;;;12.68;82.07
72685;BME280;61365;52.162;4.500;2023-11-19T04:46:22;100637.19;;;12.67;82.66
72685;BME280;61365;52.162;4.500;2023-11-19T04:48:49;100635.41;;;12.69;83.08
72685;BME280;61365;52.162;4.500;2023-11-19T04:51:16;100644.16;;;12.73;82.73
72685;BME280;61365;52.162;4.500;2023-11-19T04:53:42;100651.06;;;12.82;82.33
72685;BME280;61365;52.162;4.500;2023-11-19T04:56:09;100657.50;;;12.57;82.34
72685;BME280;61365;52.162;4.500;2023-11-19T04:58:36;100652.25;;;12.56;82.68
72685;BME280;61365;52.162;4.500;2023-11-19T05:01:05;100644.22;;;12.67;82.49
72685;BME280;61365;52.162;4.500;2023-11-19T05:03:31;100638.97;;;12.67;82.02
72685;BME280;61365;52.162;4.500;2023-11-19T05:05:58;100639.97;;;12.58;82.43
72685;BME280;61365;52.162;4.500;2023-11-19T05:08:24;100647.97;;;12.49;82.47
72685;BME280;61365;52.162;4.500;2023-11-19T05:10:51;100662.78;;;12.54;82.06
72685;BME280;61365;52.162;4.500;2023-11-19T05:13:17;100646.97;;;12.57;82.09
72685;BME280;61365;52.162;4.500;2023-11-19T05:15:43;100651.53;;;12.41;81.93
72685;BME280;61365;52.162;4.500;2023-11-19T05:18:09;100680.38;;;12.54;83.02
72685;BME280;61365;52.162;4.500;2023-11-19T05:20:35;100665.31;;;12.62;82.43
72685;BME280;61365;52.162;4.500;2023-11-19T05:23:01;100667.97;;;12.62;81.78
72685;BME280;61365;52.162;4.500;2023-11-19T05:25:27;100661.75;;;12.69;82.77
72685;BME280;61365;52.162;4.500;2023-11-19T05:27:53;100665.41;;;12.57;82.51
72685;BME280;61365;52.162;4.500;2023-11-19T05:30:19;100659.22;;;12.61;82.36
72685;BME280;61365;52.162;4.500;2023-11-19T05:32:46;100668.06;;;12.56;83.30
72685;BME280;61365;52.162;4.500;2023-11-19T05:35:12;100661.97;;;12.51;82.69
72685;BME280;61365;52.162;4.500;2023-11-19T05:37:38;100652.38;;;12.48;83.22
72685;BME280;61365;52.162;4.500;2023-11-19T05:40:05;100669.09;;;12.39;83.60
72685;BME280;61365;52.162;4.500;2023-11-19T05:42:42;100667.44;;;12.35;83.90
72685;BME280;61365;52.162;4.500;2023-11-19T05:45:10;100676.22;;;12.29;84.59
72685;BME280;61365;52.162;4.500;2023-11-19T05:47:37;100666.59;;;12.30;83.69
72685;BME280;61365;52.162;4.500;2023-11-19T05:50:03;100658.66;;;12.33;83.96
72685;BME280;61365;52.162;4.500;2023-11-19T05:52:31;100660.25;;;12.48;83.10
72685;BME280;61365;52.162;4.500;2023-11-19T05:55:00;100652.59;;;12.28;82.08
72685;BME280;61365;52.162;4.500;2023-11-19T05:57:29;100655.97;;;12.38;84.05
72685;BME280;61365;52.162;4.500;2023-11-19T05:59:55;100653.38;;;12.35;82.77
72685;BME280;61365;52.162;4.500;2023-11-19T06:02:21;100648.09;;;12.38;82.98
72685;BME280;61365;52.162;4.500;2023-11-19T06:04:47;100658.66;;;12.31;82.52
72685;BME280;61365;52.162;4.500;2023-11-19T06:07:15;100661.25;;;12.38;82.45
72685;BME280;61365;52.162;4.500;2023-11-19T06:09:41;100662.25;;;12.24;83.14
72685;BME280;61365;52.162;4.500;2023-11-19T06:12:08;100668.22;;;12.42;83.34
72685;BME280;61365;52.162;4.500;2023-11-19T06:14:34;100662.16;;;12.35;82.38
72685;BME280;61365;52.162;4.500;2023-11-19T06:17:00;100663.09;;;12.26;83.14
72685;BME280;61365;52.162;4.500;2023-11-19T06:19:26;100655.94;;;12.41;82.02
72685;BME280;61365;52.162;4.500;2023-11-19T06:21:52;100679.63;;;12.41;82.38
72685;BME280;61365;52.162;4.500;2023-11-19T06:24:18;100659.56;;;12.32;82.77
72685;BME280;61365;52.162;4.500;2023-11-19T06:26:44;100675.25;;;12.40;83.21
72685;BME280;61365;52.162;4.500;2023-11-19T06:29:10;100667.44;;;12.32;82.61
72685;BME280;61365;52.162;4.500;2023-11-19T06:31:37;100670.97;;;12.29;83.53
72685;BME280;61365;52.162;4.500;2023-11-19T06:34:06;100675.31;;;12.35;83.33
72685;BME280;61365;52.162;4.500;2023-11-19T06:36:32;100677.00;;;12.39;82.83
72685;BME280;61365;52.162;4.500;2023-11-19T06:38:59;100665.63;;;12.37;82.76
72685;BME280;61365;52.162;4.500;2023-11-19T06:41:26;100675.19;;;12.46;83.59
72685;BME280;61365;52.162;4.500;2023-11-19T06:43:54;100662.91;;;12.48;83.49
72685;BME280;61365;52.162;4.500;2023-11-19T06:46:21;100672.22;;;12.72;82.54
72685;BME280;61365;52.162;4.500;2023-11-19T06:48:47;100667.34;;;12.38;82.96
72685;BME280;61365;52.162;4.500;2023-11-19T06:51:13;100674.44;;;12.35;83.49
72685;BME280;61365;52.162;4.500;2023-11-19T06:53:39;100680.22;;;12.63;83.22
72685;BME280;61365;52.162;4.500;2023-11-19T06:56:06;100675.03;;;12.60;82.54
72685;BME280;61365;52.162;4.500;2023-11-19T06:58:51;100674.94;;;12.68;82.55
72685;BME280;61365;52.162;4.500;2023-11-19T07:01:18;100697.78;;;12.64;82.61
72685;BME280;61365;52.162;4.500;2023-11-19T07:03:47;100685.41;;;12.72;81.90
72685;BME280;61365;52.162;4.500;2023-11-19T07:06:14;100687.06;;;12.78;81.11
72685;BME280;61365;52.162;4.500;2023-11-19T07:08:43;100695.00;;;12.76;81.09
72685;BME280;61365;52.162;4.500;2023-11-19T07:11:13;100684.47;;;12.75;81.76
72685;BME280;61365;52.162;4.500;2023-11-19T07:13:42;100684.53;;;12.70;81.07
72685;BME280;61365;52.162;4.500;2023-11-19T07:16:08;100686.28;;;12.71;81.72
72685;BME280;61365;52.162;4.500;2023-11-19T07:18:35;100684.38;;;12.84;80.53
72685;BME280;61365;52.162;4.500;2023-11-19T07:21:02;100689.84;;;12.67;80.90
72685;BME280;61365;52.162;4.500;2023-11-19T07:23:28;100697.84;;;12.61;81.44
72685;BME280;61365;52.162;4.500;2023-11-19T07:25:54;100688.25;;;12.52;80.99
72685;BME280;61365;52.162;4.500;2023-11-19T07:28:21;100684.72;;;12.58;81.96
72685;BME280;61365;52.162;4.500;2023-11-19T07:30:47;100686.31;;;12.68;81.30
72685;BME280;61365;52.162;4.500;2023-11-19T07:33:13;100688.22;;;12.55;82.29
72685;BME280;61365;52.162;4.500;2023-11-19T07:35:39;100695.22;;;12.61;81.00
72685;BME280;61365;52.162;4.500;2023-11-19T07:38:08;100687.38;;;12.53;82.11
72685;BME280;61365;52.162;4.500;2023-11-19T07:40:34;100692.50;;;12.66;81.67
72685;BME280;61365;52.162;4.500;2023-11-19T07:43:00;100697.03;;;12.53;82.19
72685;BME280;61365;52.162;4.500;2023-11-19T07:45:26;100682.78;;;12.71;81.57
72685;BME280;61365;52.162;4.500;2023-11-19T07:47:53;100691.59;;;12.68;81.73
72685;BME280;61365;52.162;4.500;2023-11-19T07:50:20;100693.22;;;12.79;81.46
72685;BME280;61365;52.162;4.500;2023-11-19T07:52:46;100690.63;;;12.75;81.19
72685;BME280;61365;52.162;4.500;2023-11-19T07:55:12;100685.25;;;12.85;80.66
72685;BME280;61365;52.162;4.500;2023-11-19T07:57:38;100684.31;;;12.89;80.89
72685;BME280;61365;52.162;4.500;2023-11-19T08:00:05;100689.38;;;13.03;79.37
72685;BME280;61365;52.162;4.500;2023-11-19T08:02:32;100689.16;;;13.20;79.25
72685;BME280;61365;52.162;4.500;2023-11-19T08:04:58;100688.75;;;13.49;78.22
72685;BME280;61365;52.162;4.500;2023-11-19T08:07:24;100694.31;;;13.29;78.13
72685;BME280;61365;52.162;4.500;2023-11-19T08:09:50;100694.63;;;13.06;78.65
72685;BME280;61365;52.162;4.500;2023-11-19T08:12:17;100690.91;;;13.21;77.98
72685;BME280;61365;52.162;4.500;2023-11-19T08:14:43;100685.81;;;13.09;79.09
72685;BME280;61365;52.162;4.500;2023-11-19T08:17:09;100703.28;;;13.13;79.41
72685;BME280;61365;52.162;4.500;2023-11-19T08:19:36;100679.50;;;13.19;78.21
72685;BME280;61365;52.162;4.500;2023-11-19T08:22:02;100686.56;;;13.17;78.39
72685;BME280;61365;52.162;4.500;2023-11-19T08:24:28;100689.03;;;13.28;79.11
72685;BME280;61365;52.162;4.500;2023-11-19T08:26:54;100692.53;;;13.31;78.29
72685;BME280;61365;52.162;4.500;2023-11-19T08:29:20;100684.50;;;13.39;78.59
72685;BME280;61365;52.162;4.500;2023-11-19T08:31:47;100691.66;;;13.28;78.25
72685;BME280;61365;52.162;4.500;2023-11-19T08:34:13;100679.34;;;13.30;78.51
72685;BME280;61365;52.162;4.500;2023-11-19T08:36:39;100690.69;;;13.36;78.63
72685;BME280;61365;52.162;4.500;2023-11-19T08:39:05;100691.63;;;13.31;78.76
72685;BME280;61365;52.162;4.500;2023-11-19T08:41:31;100701.84;;;13.56;78.66
72685;BME280;61365;52.162;4.500;2023-11-19T08:43:57;100701.19;;;13.41;78.05
72685;BME280;61365;52.162;4.500;2023-11-19T08:46:23;100696.72;;;13.45;78.63
72685;BME280;61365;52.162;4.500;2023-11-19T08:48:51;100706.44;;;13.40;78.57
72685;BME280;61365;52.162;4.500;2023-11-19T08:51:17;100702.03;;;13.42;77.94
72685;BME280;61365;52.162;4.500;2023-11-19T08:53:43;100708.81;;;13.61;78.09
72685;BME280;61365;52.162;4.500;2023-11-19T08:56:09;100706.16;;;13.60;77.34
72685;BME280;61365;52.162;4.500;2023-11-19T08:58:35;100699.06;;;13.65;77.72
72685;BME280;61365;52.162;4.500;2023-11-19T09:01:01;100694.41;;;13.81;77.56
72685;BME280;61365;52.162;4.500;2023-11-19T09:03:27;100690.84;;;13.84;76.86
72685;BME280;61365;52.162;4.500;2023-11-19T09:05:56;100677.13;;;13.63;76.96
72685;BME280;61365;52.162;4.500;2023-11-19T09:08:22;100687.72;;;13.61;77.46
72685;BME280;61365;52.162;4.500;2023-11-19T09:10:48;100699.19;;;13.57;77.50
72685;BME280;61365;52.162;4.500;2023-11-19T09:13:15;100695.25;;;13.83;77.59
72685;BME280;61365;52.162;4.500;2023-11-19T09:15:41;100685.56;;;13.84;77.43
72685;BME280;61365;52.162;4.500;2023-11-19T09:18:08;100684.81;;;13.77;77.50
72685;BME280;61365;52.162;4.500;2023-11-19T09:20:34;100692.81;;;13.72;77.07
72685;BME280;61365;52.162;4.500;2023-11-19T09:23:04;100695.66;;;13.57;78.20
72685;BME280;61365;52.162;4.500;2023-11-19T09:25:31;100678.06;;;13.60;77.09
72685;BME280;61365;52.162;4.500;2023-11-19T09:27:57;100677.94;;;13.66;76.95
72685;BME280;61365;52.162;4.500;2023-11-19T09:30:23;100687.63;;;13.66;77.22
72685;BME280;61365;52.162;4.500;2023-11-19T09:32:49;100674.97;;;13.87;76.44
72685;BME280;61365;52.162;4.500;2023-11-19T09:35:15;100683.88;;;13.81;76.95
72685;BME280;61365;52.162;4.500;2023-11-19T09:37:43;100675.81;;;13.89;77.56
72685;BME280;61365;52.162;4.500;2023-11-19T09:40:09;100685.47;;;13.88;77.41
72685;BME280;61365;52.162;4.500;2023-11-19T09:42:44;100691.44;;;14.00;77.17
72685;BME280;61365;52.162;4.500;2023-11-19T09:45:14;100681.75;;;14.00;75.84
72685;BME280;61365;52.162;4.500;2023-11-19T09:47:44;100688.78;;;14.01;76.72
72685;BME280;61365;52.162;4.500;2023-11-19T09:50:14;100692.06;;;14.16;75.19
72685;BME280;61365;52.162;4.500;2023-11-19T09:52:43;100679.91;;;14.07;75.32
72685;BME280;61365;52.162;4.500;2023-11-19T09:55:10;100693.13;;;14.04;75.85
72685;BME280;61365;52.162;4.500;2023-11-19T09:57:38;100695.13;;;14.39;74.15
72685;BME280;61365;52.162;4.500;2023-11-19T10:00:05;100688.84;;;14.45;73.93
72685;BME280;61365;52.162;4.500;2023-11-19T10:02:33;100686.81;;;14.13;73.64
72685;BME280;61365;52.162;4.500;2023-11-19T10:05:06;100693.78;;;14.17;74.57
72685;BME280;61365;52.162;4.500;2023-11-19T10:07:33;100699.25;;;14.06;77.10
72685;BME280;61365;52.162;4.500;2023-11-19T10:10:00;100696.81;;;13.95;78.25
72685;BME280;61365;52.162;4.500;2023-11-19T10:12:29;100692.69;;;14.27;76.07
72685;BME280;61365;52.162;4.500;2023-11-19T10:14:56;100687.53;;;14.22;75.57
72685;BME280;61365;52.162;4.500;2023-11-19T10:17:27;100681.72;;;14.50;74.62
72685;BME280;61365;52.162;4.500;2023-11-19T10:19:55;100677.88;;;14.21;75.80
72685;BME280;61365;52.162;4.500;2023-11-19T10:22:22;100675.06;;;14.29;75.12
72685;BME280;61365;52.162;4.500;2023-11-19T10:24:49;100666.53;;;14.62;74.11
72685;BME280;61365;52.162;4.500;2023-11-19T10:27:16;100667.84;;;14.39;73.88
72685;BME280;61365;52.162;4.500;2023-11-19T10:29:48;100668.78;;;14.36;73.54
72685;BME280;61365;52.162;4.500;2023-11-19T10:32:14;100651.03;;;14.45;73.52
72685;BME280;61365;52.162;4.500;2023-11-19T10:34:40;100667.56;;;14.53;73.53
72685;BME280;61365;52.162;4.500;2023-11-19T10:37:07;100674.59;;;14.54;72.87
72685;BME280;61365;52.162;4.500;2023-11-19T10:39:51;100664.25;;;14.43;73.42
72685;BME280;61365;52.162;4.500;2023-11-19T10:42:21;100668.50;;;14.50;73.15
72685;BME280;61365;52.162;4.500;2023-11-19T10:44:48;100664.47;;;14.32;74.27
72685;BME280;61365;52.162;4.500;2023-11-19T10:47:14;100672.09;;;14.46;73.43
72685;BME280;61365;52.162;4.500;2023-11-19T10:49:43;100667.59;;;14.51;73.13
72685;BME280;61365;52.162;4.500;2023-11-19T10:52:09;100665.72;;;14.58;72.44
72685;BME280;61365;52.162;4.500;2023-11-19T10:54:35;100673.69;;;14.56;73.26
72685;BME280;61365;52.162;4.500;2023-11-19T10:57:04;100673.00;;;14.47;73.30
72685;BME280;61365;52.162;4.500;2023-11-19T10:59:34;100666.72;;;14.52;72.37
72685;BME280;61365;52.162;4.500;2023-11-19T11:02:03;100663.84;;;14.63;72.45
72685;BME280;61365;52.162;4.500;2023-11-19T11:04:37;100664.38;;;14.37;73.29
72685;BME280;61365;52.162;4.500;2023-11-19T11:07:07;100663.59;;;14.32;73.40
72685;BME280;61365;52.162;4.500;2023-11-19T11:09:35;100666.41;;;14.22;73.14
72685;BME280;61365;52.162;4.500;2023-11-19T11:12:01;100663.53;;;14.35;73.28
72685;BME280;61365;52.162;4.500;2023-11-19T11:14:29;100643.91;;;14.48;71.30
72685;BME280;61365;52.162;4.500;2023-11-19T11:17:00;100668.56;;;14.47;72.12
72685;BME280;61365;52.162;4.500;2023-11-19T11:19:30;100656.69;;;14.24;70.95
72685;BME280;61365;52.162;4.500;2023-11-19T11:21:56;100648.41;;;14.43;71.33
72685;BME280;61365;52.162;4.500;2023-11-19T11:30:02;100649.19;;;14.50;72.11
72685;BME280;61365;52.162;4.500;2023-11-19T11:32:54;100649.63;;;14.26;71.95
72685;BME280;61365;52.162;4.500;2023-11-19T11:35:38;100643.19;;;14.40;71.38
72685;BME280;61365;52.162;4.500;2023-11-19T11:38:21;100640.38;;;14.49;71.21
72685;BME280;61365;52.162;4.500;2023-11-19T11:43:48;100649.19;;;14.48;71.10
72685;BME280;61365;52.162;4.500;2023-11-19T11:49:03;100636.59;;;14.61;71.93
72685;BME280;61365;52.162;4.500;2023-11-19T11:54:09;100636.16;;;14.39;71.42
72685;BME280;61365;52.162;4.500;2023-11-19T12:02:07;100633.72;;;14.30;71.87
72685;BME280;61365;52.162;4.500;2023-11-19T12:04:35;100630.94;;;14.37;72.08
72685;BME280;61365;52.162;4.500;2023-11-19T12:07:05;100648.00;;;14.63;71.83
72685;BME280;61365;52.162;4.500;2023-11-19T12:09:41;100640.03;;;14.66;70.99
72685;BME280;61365;52.162;4.500;2023-11-19T12:17:41;100641.38;;;14.42;72.05
72685;BME280;61365;52.162;4.500;2023-11-19T12:20:11;100637.09;;;14.36;72.64
72685;BME280;61365;52.162;4.500;2023-11-19T12:22:38;100634.31;;;14.44;72.73
72685;BME280;61365;52.162;4.500;2023-11-19T12:25:05;100658.22;;;14.36;72.46
72685;BME280;61365;52.162;4.500;2023-11-19T12:27:33;100642.50;;;14.30;73.03
72685;BME280;61365;52.162;4.500;2023-11-19T12:30:02;100645.28;;;14.22;73.78
72685;BME280;61365;52.162;4.500;2023-11-19T12:32:41;100655.53;;;14.38;73.02
72685;BME280;61365;52.162;4.500;2023-11-19T12:35:08;100644.59;;;14.13;74.64
72685;BME280;61365;52.162;4.500;2023-11-19T12:37:44;100626.88;;;14.19;73.77
72685;BME280;61365;52.162;4.500;2023-11-19T12:40:15;100633.72;;;14.30;73.77
72685;BME280;61365;52.162;4.500;2023-11-19T12:42:43;100635.25;;;14.40;73.01
72685;BME280;61365;52.162;4.500;2023-11-19T12:45:10;100632.38;;;14.52;71.81
72685;BME280;61365;52.162;4.500;2023-11-19T12:47:36;100636.66;;;14.60;72.16
72685;BME280;61365;52.162;4.500;2023-11-19T12:50:03;100628.16;;;14.88;71.78
72685;BME280;61365;52.162;4.500;2023-11-19T12:52:30;100637.06;;;14.82;71.84
72685;BME280;61365;52.162;4.500;2023-11-19T12:54:56;100628.84;;;14.96;70.90
72685;BME280;61365;52.162;4.500;2023-11-19T12:57:36;100633.50;;;14.84;70.98
72685;BME280;61365;52.162;4.500;2023-11-19T13:00:04;100636.66;;;14.58;74.74
72685;BME280;61365;52.162;4.500;2023-11-19T13:02:50;100636.66;;;14.58;74.00
72685;BME280;61365;52.162;4.500;2023-11-19T13:05:28;100634.41;;;14.83;72.88
72685;BME280;61365;52.162;4.500;2023-11-19T13:10:51;100632.38;;;14.96;71.25
72685;BME280;61365;52.162;4.500;2023-11-19T13:13:19;100640.25;;;14.54;73.12
72685;BME280;61365;52.162;4.500;2023-11-19T13:15:45;100625.72;;;14.77;72.01
72685;BME280;61365;52.162;4.500;2023-11-19T13:18:11;100632.38;;;14.95;71.96
72685;BME280;61365;52.162;4.500;2023-11-19T13:20:39;100631.06;;;14.75;72.10